sensor_id;sensor_type;location;lat;lon;timestamp;P1;durP1;ratioP1;P2;durP2;ratioP2
18364;SDS011;9309;52.126;11.616;2023-02-22T14:14:12;19.10;;;9.33;;
18364;SDS011;9309;52.126;11.616;2023-02-22T14:16:41;18.77;;;9.50;;
18364;SDS011;9309;52.126;11.616;2023-02-22T14:19:13;19.37;;;8.97;;
18364;SDS011;9309;52.126;11.616;2023-02-22T14:21:53;21.43;;;9.80;;
18364;SDS011;9309;52.126;11.616;2023-02-22T14:24:26;22.23;;;9.57;;
18364;SDS011;9309;52.126;11.616;2023-02-22T14:26:54;19.70;;;9.90;;
18364;SDS011;9309;52.126;11.616;2023-02-22T14:29:29;24.83;;;9.90;;
18364;SDS011;9309;52.126;11.616;2023-02-22T14:31:58;26.10;;;11.20;;
18364;SDS011;9309;52.126;11.616;2023-02-22T14:34:44;20.83;;;9.83;;
18364;SDS011;9309;52.126;11.616;2023-02-22T14:37:16;31.67;;;10.83;;
18364;SDS011;9309;52.126;11.616;2023-02-22T14:39:48;23.93;;;10.47;;
18364;SDS011;9309;52.126;11.616;2023-02-22T14:42:19;20.53;;;10.40;;
18364;SDS011;9309;52.126;11.616;2023-02-22T14:44:52;20.77;;;10.63;;
18364;SDS011;9309;52.126;11.616;2023-02-22T14:47:26;25.13;;;11.83;;
18364;SDS011;9309;52.126;11.616;2023-02-22T14:49:56;25.43;;;11.17;;
18364;SDS011;9309;52.126;11.616;2023-02-22T14:52:30;27.30;;;11.17;;
18364;SDS011;9309;52.126;11.616;2023-02-22T14:55:03;23.87;;;10.97;;
18364;SDS011;9309;52.126;11.616;2023-02-22T14:57:43;24.70;;;10.10;;
18364;SDS011;9309;52.126;11.616;2023-02-22T15:00:20;23.63;;;11.30;;
18364;SDS011;9309;52.126;11.616;2023-02-22T15:02:55;28.07;;;11.60;;
18364;SDS011;9309;52.126;11.616;2023-02-22T15:05:24;28.27;;;11.07;;
18364;SDS011;9309;52.126;11.616;2023-02-22T15:07:55;25.37;;;11.80;;
18364;SDS011;9309;52.126;11.616;2023-02-22T15:10:25;31.13;;;12.73;;
18364;SDS011;9309;52.126;11.616;2023-02-22T15:12:55;28.67;;;12.83;;
18364;SDS011;9309;52.126;11.616;2023-02-22T15:15:35;30.37;;;13.83;;
18364;SDS011;9309;52.126;11.616;2023-02-22T15:18:03;28.83;;;13.33;;
18364;SDS011;9309;52.126;11.616;2023-02-22T15:20:33;34.67;;;13.13;;
18364;SDS011;9309;52.126;11.616;2023-02-22T15:23:02;34.53;;;13.67;;
18364;SDS011;9309;52.126;11.616;2023-02-22T15:25:29;26.70;;;12.43;;
18364;SDS011;9309;52.126;11.616;2023-02-22T15:27:59;27.43;;;13.27;;
18364;SDS011;9309;52.126;11.616;2023-02-22T15:30:29;32.97;;;14.27;;
18364;SDS011;9309;52.126;11.616;2023-02-22T15:33:09;31.13;;;12.97;;
18364;SDS011;9309;52.126;11.616;2023-02-22T15:35:39;33.37;;;14.23;;
18364;SDS011;9309;52.126;11.616;2023-02-22T15:38:10;31.20;;;13.63;;
18364;SDS011;9309;52.126;11.616;2023-02-22T15:40:45;33.00;;;14.13;;
18364;SDS011;9309;52.126;11.616;2023-02-22T15:43:18;31.20;;;14.00;;
18364;SDS011;9309;52.126;11.616;2023-02-22T15:45:48;34.17;;;13.20;;
18364;SDS011;9309;52.126;11.616;2023-02-22T15:48:17;34.10;;;14.37;;
18364;SDS011;9309;52.126;11.616;2023-02-22T15:51:00;32.27;;;14.10;;
18364;SDS011;9309;52.126;11.616;2023-02-22T15:53:33;35.83;;;14.33;;
18364;SDS011;9309;52.126;11.616;2023-02-22T15:56:05;31.47;;;14.37;;
18364;SDS011;9309;52.126;11.616;2023-02-22T15:58:36;31.83;;;14.23;;
18364;SDS011;9309;52.126;11.616;2023-02-22T16:01:04;31.47;;;14.33;;
18364;SDS011;9309;52.126;11.616;2023-02-22T16:03:35;35.50;;;15.50;;
18364;SDS011;9309;52.126;11.616;2023-02-22T16:06:09;34.87;;;15.03;;
18364;SDS011;9309;52.126;11.616;2023-02-22T16:08:40;27.10;;;13.13;;
18364;SDS011;9309;52.126;11.616;2023-02-22T16:11:12;30.67;;;13.60;;
18364;SDS011;9309;52.126;11.616;2023-02-22T16:13:44;35.40;;;14.33;;
18364;SDS011;9309;52.126;11.616;2023-02-22T16:16:21;32.03;;;13.37;;
18364;SDS011;9309;52.126;11.616;2023-02-22T16:19:12;25.37;;;11.57;;
18364;SDS011;9309;52.126;11.616;2023-02-22T16:21:49;33.67;;;14.23;;
18364;SDS011;9309;52.126;11.616;2023-02-22T16:24:24;30.07;;;12.93;;
18364;SDS011;9309;52.126;11.616;2023-02-22T16:27:02;37.23;;;14.63;;
18364;SDS011;9309;52.126;11.616;2023-02-22T16:29:31;32.70;;;14.60;;
18364;SDS011;9309;52.126;11.616;2023-02-22T16:31:58;30.17;;;14.50;;
18364;SDS011;9309;52.126;11.616;2023-02-22T16:34:29;34.00;;;13.70;;
18364;SDS011;9309;52.126;11.616;2023-02-22T16:36:55;31.80;;;14.33;;
18364;SDS011;9309;52.126;11.616;2023-02-22T16:39:23;39.47;;;15.30;;
18364;SDS011;9309;52.126;11.616;2023-02-22T16:41:52;36.30;;;15.40;;
18364;SDS011;9309;52.126;11.616;2023-02-22T16:44:20;29.83;;;14.07;;
18364;SDS011;9309;52.126;11.616;2023-02-22T16:46:49;29.47;;;14.00;;
18364;SDS011;9309;52.126;11.616;2023-02-22T16:49:16;37.10;;;14.27;;
18364;SDS011;9309;52.126;11.616;2023-02-22T16:51:46;31.73;;;13.23;;
18364;SDS011;9309;52.126;11.616;2023-02-22T16:54:18;31.77;;;14.20;;
18364;SDS011;9309;52.126;11.616;2023-02-22T16:56:49;36.50;;;15.13;;
18364;SDS011;9309;52.126;11.616;2023-02-22T16:59:16;31.57;;;14.63;;
18364;SDS011;9309;52.126;11.616;2023-02-22T17:01:43;35.13;;;15.70;;
18364;SDS011;9309;52.126;11.616;2023-02-22T17:04:14;40.47;;;15.93;;
18364;SDS011;9309;52.126;11.616;2023-02-22T17:06:43;42.13;;;16.00;;
18364;SDS011;9309;52.126;11.616;2023-02-22T17:09:12;34.37;;;16.00;;
18364;SDS011;9309;52.126;11.616;2023-02-22T17:11:40;40.33;;;16.30;;
18364;SDS011;9309;52.126;11.616;2023-02-22T17:14:08;33.23;;;14.90;;
18364;SDS011;9309;52.126;11.616;2023-02-22T17:16:35;38.23;;;15.20;;
18364;SDS011;9309;52.126;11.616;2023-02-22T17:19:02;37.43;;;15.17;;
18364;SDS011;9309;52.126;11.616;2023-02-22T17:21:31;36.43;;;15.53;;
18364;SDS011;9309;52.126;11.616;2023-02-22T17:23:59;34.70;;;14.43;;
18364;SDS011;9309;52.126;11.616;2023-02-22T17:26:25;34.90;;;14.60;;
18364;SDS011;9309;52.126;11.616;2023-02-22T17:28:52;34.37;;;14.67;;
18364;SDS011;9309;52.126;11.616;2023-02-22T17:31:19;33.33;;;15.00;;
18364;SDS011;9309;52.126;11.616;2023-02-22T17:33:47;36.13;;;15.23;;
18364;SDS011;9309;52.126;11.616;2023-02-22T17:36:15;34.17;;;13.40;;
18364;SDS011;9309;52.126;11.616;2023-02-22T17:38:42;32.40;;;15.17;;
18364;SDS011;9309;52.126;11.616;2023-02-22T17:41:10;29.80;;;14.10;;
18364;SDS011;9309;52.126;11.616;2023-02-22T17:43:36;30.27;;;14.90;;
18364;SDS011;9309;52.126;11.616;2023-02-22T17:46:04;36.40;;;15.90;;
18364;SDS011;9309;52.126;11.616;2023-02-22T17:48:32;36.87;;;15.97;;
18364;SDS011;9309;52.126;11.616;2023-02-22T17:51:03;35.87;;;14.97;;
18364;SDS011;9309;52.126;11.616;2023-02-22T17:53:31;34.17;;;14.97;;
18364;SDS011;9309;52.126;11.616;2023-02-22T17:55:57;34.77;;;15.10;;
18364;SDS011;9309;52.126;11.616;2023-02-22T17:58:30;36.20;;;15.63;;
18364;SDS011;9309;52.126;11.616;2023-02-22T18:00:57;43.03;;;16.23;;
18364;SDS011;9309;52.126;11.616;2023-02-22T18:03:24;46.03;;;17.07;;
18364;SDS011;9309;52.126;11.616;2023-02-22T18:05:53;39.50;;;15.83;;
18364;SDS011;9309;52.126;11.616;2023-02-22T18:08:22;43.03;;;15.83;;
18364;SDS011;9309;52.126;11.616;2023-02-22T18:10:50;36.00;;;15.50;;
18364;SDS011;9309;52.126;11.616;2023-02-22T18:13:21;44.00;;;17.27;;
18364;SDS011;9309;52.126;11.616;2023-02-22T18:15:49;35.47;;;15.23;;
18364;SDS011;9309;52.126;11.616;2023-02-22T18:18:16;35.83;;;15.77;;
18364;SDS011;9309;52.126;11.616;2023-02-22T18:20:44;38.33;;;16.27;;
18364;SDS011;9309;52.126;11.616;2023-02-22T18:23:16;36.43;;;14.77;;
18364;SDS011;9309;52.126;11.616;2023-02-22T18:25:44;38.13;;;15.13;;
18364;SDS011;9309;52.126;11.616;2023-02-22T18:28:13;38.50;;;15.00;;
18364;SDS011;9309;52.126;11.616;2023-02-22T18:30:41;39.43;;;14.83;;
18364;SDS011;9309;52.126;11.616;2023-02-22T18:33:09;34.70;;;13.40;;
18364;SDS011;9309;52.126;11.616;2023-02-22T18:35:37;32.60;;;15.00;;
18364;SDS011;9309;52.126;11.616;2023-02-22T18:38:04;32.97;;;15.23;;
18364;SDS011;9309;52.126;11.616;2023-02-22T18:40:31;34.20;;;15.23;;
18364;SDS011;9309;52.126;11.616;2023-02-22T18:42:58;37.30;;;15.10;;
18364;SDS011;9309;52.126;11.616;2023-02-22T18:45:25;39.87;;;16.27;;
18364;SDS011;9309;52.126;11.616;2023-02-22T18:47:52;35.47;;;15.30;;
18364;SDS011;9309;52.126;11.616;2023-02-22T18:50:20;36.27;;;16.17;;
18364;SDS011;9309;52.126;11.616;2023-02-22T18:52:46;34.80;;;14.53;;
18364;SDS011;9309;52.126;11.616;2023-02-22T18:55:14;35.40;;;14.77;;
18364;SDS011;9309;52.126;11.616;2023-02-22T18:57:42;33.53;;;13.83;;
18364;SDS011;9309;52.126;11.616;2023-02-22T19:00:10;42.77;;;15.27;;
18364;SDS011;9309;52.126;11.616;2023-02-22T19:02:38;38.00;;;15.27;;
18364;SDS011;9309;52.126;11.616;2023-02-22T19:05:07;40.57;;;17.50;;
18364;SDS011;9309;52.126;11.616;2023-02-22T19:07:36;37.63;;;17.07;;
18364;SDS011;9309;52.126;11.616;2023-02-22T19:10:03;33.73;;;15.13;;
18364;SDS011;9309;52.126;11.616;2023-02-22T19:12:31;30.57;;;15.07;;
18364;SDS011;9309;52.126;11.616;2023-02-22T19:14:58;29.63;;;14.77;;
18364;SDS011;9309;52.126;11.616;2023-02-22T19:17:25;37.23;;;15.20;;
18364;SDS011;9309;52.126;11.616;2023-02-22T19:19:53;34.90;;;14.07;;
18364;SDS011;9309;52.126;11.616;2023-02-22T19:22:20;33.33;;;14.23;;
18364;SDS011;9309;52.126;11.616;2023-02-22T19:24:51;33.47;;;15.17;;
18364;SDS011;9309;52.126;11.616;2023-02-22T19:27:19;34.07;;;14.73;;
18364;SDS011;9309;52.126;11.616;2023-02-22T19:29:46;43.20;;;14.37;;
18364;SDS011;9309;52.126;11.616;2023-02-22T19:32:12;29.40;;;13.67;;
18364;SDS011;9309;52.126;11.616;2023-02-22T19:34:41;31.70;;;14.23;;
18364;SDS011;9309;52.126;11.616;2023-02-22T19:37:09;31.83;;;13.30;;
18364;SDS011;9309;52.126;11.616;2023-02-22T19:39:36;30.83;;;13.27;;
18364;SDS011;9309;52.126;11.616;2023-02-22T19:42:07;33.17;;;13.40;;
18364;SDS011;9309;52.126;11.616;2023-02-22T19:44:34;27.33;;;12.93;;
18364;SDS011;9309;52.126;11.616;2023-02-22T19:47:02;31.33;;;12.93;;
18364;SDS011;9309;52.126;11.616;2023-02-22T19:49:33;31.00;;;13.80;;
18364;SDS011;9309;52.126;11.616;2023-02-22T19:52:01;31.97;;;11.90;;
18364;SDS011;9309;52.126;11.616;2023-02-22T19:54:30;31.60;;;12.70;;
18364;SDS011;9309;52.126;11.616;2023-02-22T19:56:57;27.63;;;12.00;;
18364;SDS011;9309;52.126;11.616;2023-02-22T19:59:26;34.73;;;12.10;;
18364;SDS011;9309;52.126;11.616;2023-02-22T20:01:53;22.80;;;11.30;;
18364;SDS011;9309;52.126;11.616;2023-02-22T20:04:21;37.63;;;12.50;;
18364;SDS011;9309;52.126;11.616;2023-02-22T20:06:49;31.67;;;12.40;;
18364;SDS011;9309;52.126;11.616;2023-02-22T20:09:19;27.77;;;11.43;;
18364;SDS011;9309;52.126;11.616;2023-02-22T20:11:48;24.40;;;11.03;;
18364;SDS011;9309;52.126;11.616;2023-02-22T20:14:17;28.50;;;11.57;;
18364;SDS011;9309;52.126;11.616;2023-02-22T20:16:46;21.40;;;10.17;;
18364;SDS011;9309;52.126;11.616;2023-02-22T20:19:13;30.73;;;10.90;;
18364;SDS011;9309;52.126;11.616;2023-02-22T20:21:39;27.47;;;11.40;;
18364;SDS011;9309;52.126;11.616;2023-02-22T20:24:07;28.60;;;10.50;;
18364;SDS011;9309;52.126;11.616;2023-02-22T20:26:36;28.37;;;10.87;;
18364;SDS011;9309;52.126;11.616;2023-02-22T20:29:04;23.20;;;9.60;;
18364;SDS011;9309;52.126;11.616;2023-02-22T20:31:33;23.23;;;10.07;;
18364;SDS011;9309;52.126;11.616;2023-02-22T20:34:02;22.60;;;9.83;;
18364;SDS011;9309;52.126;11.616;2023-02-22T20:36:30;24.80;;;10.37;;
18364;SDS011;9309;52.126;11.616;2023-02-22T20:38:59;22.37;;;9.57;;
18364;SDS011;9309;52.126;11.616;2023-02-22T20:41:27;20.13;;;9.10;;
18364;SDS011;9309;52.126;11.616;2023-02-22T20:43:55;22.33;;;9.37;;
18364;SDS011;9309;52.126;11.616;2023-02-22T20:46:24;19.97;;;8.77;;
18364;SDS011;9309;52.126;11.616;2023-02-22T20:48:54;20.33;;;9.43;;
18364;SDS011;9309;52.126;11.616;2023-02-22T20:51:23;28.07;;;9.63;;
18364;SDS011;9309;52.126;11.616;2023-02-22T20:53:51;28.93;;;9.67;;
18364;SDS011;9309;52.126;11.616;2023-02-22T20:56:19;21.60;;;9.00;;
18364;SDS011;9309;52.126;11.616;2023-02-22T20:58:47;24.57;;;10.33;;
18364;SDS011;9309;52.126;11.616;2023-02-22T21:01:15;24.83;;;9.73;;
18364;SDS011;9309;52.126;11.616;2023-02-22T21:03:43;19.33;;;9.23;;
18364;SDS011;9309;52.126;11.616;2023-02-22T21:06:11;27.93;;;10.20;;
18364;SDS011;9309;52.126;11.616;2023-02-22T21:08:42;22.87;;;9.53;;
18364;SDS011;9309;52.126;11.616;2023-02-22T21:11:09;24.50;;;9.97;;
18364;SDS011;9309;52.126;11.616;2023-02-22T21:13:37;17.90;;;10.00;;
18364;SDS011;9309;52.126;11.616;2023-02-22T21:16:04;18.03;;;8.63;;
18364;SDS011;9309;52.126;11.616;2023-02-22T21:18:31;24.53;;;10.43;;
18364;SDS011;9309;52.126;11.616;2023-02-22T21:21:00;24.50;;;10.27;;
18364;SDS011;9309;52.126;11.616;2023-02-22T21:23:34;21.13;;;9.55;;
18364;SDS011;9309;52.126;11.616;2023-02-22T21:26:02;18.80;;;9.33;;
18364;SDS011;9309;52.126;11.616;2023-02-22T21:28:30;21.60;;;9.83;;
18364;SDS011;9309;52.126;11.616;2023-02-22T21:31:02;29.43;;;10.53;;
18364;SDS011;9309;52.126;11.616;2023-02-22T21:33:30;37.33;;;11.93;;
18364;SDS011;9309;52.126;11.616;2023-02-22T21:35:59;38.63;;;13.17;;
18364;SDS011;9309;52.126;11.616;2023-02-22T21:38:26;34.93;;;13.83;;
18364;SDS011;9309;52.126;11.616;2023-02-22T21:40:53;31.37;;;14.67;;
18364;SDS011;9309;52.126;11.616;2023-02-22T21:43:24;29.80;;;13.80;;
18364;SDS011;9309;52.126;11.616;2023-02-22T21:45:51;38.00;;;14.23;;
18364;SDS011;9309;52.126;11.616;2023-02-22T21:48:18;31.97;;;13.70;;
18364;SDS011;9309;52.126;11.616;2023-02-22T21:50:44;28.90;;;13.67;;
18364;SDS011;9309;52.126;11.616;2023-02-22T21:53:12;30.30;;;13.07;;
18364;SDS011;9309;52.126;11.616;2023-02-22T21:55:39;29.30;;;12.83;;
18364;SDS011;9309;52.126;11.616;2023-02-22T21:58:05;36.00;;;12.30;;
18364;SDS011;9309;52.126;11.616;2023-02-22T22:00:34;30.50;;;12.60;;
18364;SDS011;9309;52.126;11.616;2023-02-22T22:03:06;32.23;;;11.90;;
18364;SDS011;9309;52.126;11.616;2023-02-22T22:05:38;25.33;;;12.40;;
18364;SDS011;9309;52.126;11.616;2023-02-22T22:08:09;32.30;;;11.90;;
18364;SDS011;9309;52.126;11.616;2023-02-22T22:10:40;33.20;;;12.50;;
18364;SDS011;9309;52.126;11.616;2023-02-22T22:13:07;26.40;;;11.97;;
18364;SDS011;9309;52.126;11.616;2023-02-22T22:15:35;33.63;;;12.50;;
18364;SDS011;9309;52.126;11.616;2023-02-22T22:18:02;30.77;;;11.37;;
18364;SDS011;9309;52.126;11.616;2023-02-22T22:20:30;23.57;;;11.40;;
18364;SDS011;9309;52.126;11.616;2023-02-22T22:22:57;26.47;;;12.07;;
18364;SDS011;9309;52.126;11.616;2023-02-22T22:25:24;27.37;;;10.80;;
18364;SDS011;9309;52.126;11.616;2023-02-22T22:27:52;26.50;;;11.90;;
18364;SDS011;9309;52.126;11.616;2023-02-22T22:30:20;25.73;;;10.80;;
18364;SDS011;9309;52.126;11.616;2023-02-22T22:32:48;26.73;;;11.53;;
18364;SDS011;9309;52.126;11.616;2023-02-22T22:35:15;24.57;;;12.13;;
18364;SDS011;9309;52.126;11.616;2023-02-22T22:37:42;25.03;;;11.87;;
18364;SDS011;9309;52.126;11.616;2023-02-22T22:40:15;35.83;;;12.30;;
18364;SDS011;9309;52.126;11.616;2023-02-22T22:42:43;22.50;;;11.30;;
18364;SDS011;9309;52.126;11.616;2023-02-22T22:45:11;26.10;;;12.17;;
18364;SDS011;9309;52.126;11.616;2023-02-22T22:47:42;32.63;;;11.27;;
18364;SDS011;9309;52.126;11.616;2023-02-22T22:50:11;22.33;;;10.93;;
18364;SDS011;9309;52.126;11.616;2023-02-22T22:52:39;27.43;;;11.00;;
18364;SDS011;9309;52.126;11.616;2023-02-22T22:55:06;30.10;;;10.17;;
18364;SDS011;9309;52.126;11.616;2023-02-22T22:57:36;30.10;;;11.90;;
18364;SDS011;9309;52.126;11.616;2023-02-22T23:00:06;27.77;;;11.30;;
18364;SDS011;9309;52.126;11.616;2023-02-22T23:02:49;26.67;;;10.13;;
18364;SDS011;9309;52.126;11.616;2023-02-22T23:05:21;23.87;;;10.30;;
18364;SDS011;9309;52.126;11.616;2023-02-22T23:07:52;21.87;;;9.63;;
18364;SDS011;9309;52.126;11.616;2023-02-22T23:10:20;28.83;;;10.87;;
18364;SDS011;9309;52.126;11.616;2023-02-22T23:12:51;21.70;;;10.17;;
18364;SDS011;9309;52.126;11.616;2023-02-22T23:15:19;23.87;;;9.80;;
18364;SDS011;9309;52.126;11.616;2023-02-22T23:17:46;23.33;;;10.33;;
18364;SDS011;9309;52.126;11.616;2023-02-22T23:20:14;27.40;;;10.13;;
18364;SDS011;9309;52.126;11.616;2023-02-22T23:22:42;21.17;;;9.57;;
18364;SDS011;9309;52.126;11.616;2023-02-22T23:25:11;22.87;;;10.40;;
18364;SDS011;9309;52.126;11.616;2023-02-22T23:27:39;21.67;;;9.83;;
18364;SDS011;9309;52.126;11.616;2023-02-22T23:30:07;24.87;;;10.33;;
18364;SDS011;9309;52.126;11.616;2023-02-22T23:32:39;30.90;;;10.27;;
18364;SDS011;9309;52.126;11.616;2023-02-22T23:35:06;23.20;;;10.30;;
18364;SDS011;9309;52.126;11.616;2023-02-22T23:37:35;22.80;;;10.30;;
18364;SDS011;9309;52.126;11.616;2023-02-22T23:40:06;26.77;;;10.37;;
18364;SDS011;9309;52.126;11.616;2023-02-22T23:42:46;23.57;;;10.20;;
18364;SDS011;9309;52.126;11.616;2023-02-22T23:45:14;28.87;;;9.17;;
18364;SDS011;9309;52.126;11.616;2023-02-22T23:47:47;23.47;;;9.87;;
18364;SDS011;9309;52.126;11.616;2023-02-22T23:50:18;21.77;;;10.20;;
18364;SDS011;9309;52.126;11.616;2023-02-22T23:52:47;27.03;;;9.63;;
18364;SDS011;9309;52.126;11.616;2023-02-22T23:55:16;21.97;;;10.13;;
18364;SDS011;9309;52.126;11.616;2023-02-22T23:57:45;20.57;;;10.13;;
